ELLX/LUX METAR and TAF weather

Enter ICAO airport designator
Station Type Date Time Source
ELLX METAR 2018/01/23 01:20 UTC NOAA

ELLX 230120Z AUTO 26008KT 9999 OVC033/// 05/04 Q1021 NOSIG


Station Type Date Time Source
ELLX Decoded METAR 2018/01/23 01:20 UTC NOAA

Luxembourg / Luxembourg, Luxembourg (ELLX) 49-37N 006-13E 379M
Jan 22, 2018 - 08:20 PM EST / 2018.01.23 0120 UTC
Wind: from the W (260 degrees) at 9 MPH (8 KT):0
Visibility: greater than 7 mile(s):0
Sky conditions: overcast
Temperature: 41 F (5 C)
Dew Point: 39 F (4 C)
Relative Humidity: 93%
Pressure (altimeter): 30.15 in. Hg (1021 hPa)
ob: ELLX 230120Z AUTO 26008KT 9999 OVC033/// 05/04 Q1021 NOSIG
cycle: 1

Station Type Date Time Source
ELLX TAF 2018/01/22 18:27 UTC NOAA

TAF ELLX 221700Z 2218/2324 31007KT 9999 BKN012
TEMPO 2220/2303 3000 BR BKN003
BECMG 2303/2306 20008KT
TEMPO 2306/2324 20010G20KT 2000 -RADZ BR BKN004


Example: see airport list